sensor_id;sensor_type;location;lat;lon;timestamp;pressure;altitude;pressure_sealevel;temperature;humidity
12219;BME280;6172;42.646;23.344;2022-10-16T00:00:45;95242.38;;;7.24;100.00
12219;BME280;6172;42.646;23.344;2022-10-16T00:03:12;95244.34;;;7.34;100.00
12219;BME280;6172;42.646;23.344;2022-10-16T00:05:41;95254.06;;;7.35;100.00
12219;BME280;6172;42.646;23.344;2022-10-16T00:08:09;95252.84;;;7.26;100.00
12219;BME280;6172;42.646;23.344;2022-10-16T00:10:36;95251.97;;;7.08;100.00
12219;BME280;6172;42.646;23.344;2022-10-16T00:13:05;95259.34;;;7.14;100.00
12219;BME280;6172;42.646;23.344;2022-10-16T00:15:33;95264.28;;;7.02;100.00
12219;BME280;6172;42.646;23.344;2022-10-16T00:18:01;95259.34;;;7.14;100.00
12219;BME280;6172;42.646;23.344;2022-10-16T00:20:28;95262.41;;;7.09;100.00
12219;BME280;6172;42.646;23.344;2022-10-16T00:22:56;95264.38;;;7.16;100.00
12219;BME280;6172;42.646;23.344;2022-10-16T00:25:23;95267.34;;;6.97;100.00
12219;BME280;6172;42.646;23.344;2022-10-16T00:27:50;95258.81;;;6.95;100.00
12219;BME280;6172;42.646;23.344;2022-10-16T00:30:18;95271.31;;;7.06;100.00
12219;BME280;6172;42.646;23.344;2022-10-16T00:32:45;95275.84;;;6.95;100.00
12219;BME280;6172;42.646;23.344;2022-10-16T00:35:12;95276.69;;;6.99;100.00
12219;BME280;6172;42.646;23.344;2022-10-16T00:37:39;95280.13;;;6.96;100.00
12219;BME280;6172;42.646;23.344;2022-10-16T00:40:06;95285.59;;;7.03;100.00
12219;BME280;6172;42.646;23.344;2022-10-16T00:42:33;95276.34;;;7.08;100.00
12219;BME280;6172;42.646;23.344;2022-10-16T00:45:00;95279.47;;;7.13;100.00
12219;BME280;6172;42.646;23.344;2022-10-16T00:47:32;95273.66;;;7.11;100.00
12219;BME280;6172;42.646;23.344;2022-10-16T00:50:06;95273.66;;;7.11;100.00
12219;BME280;6172;42.646;23.344;2022-10-16T00:52:33;95271.25;;;6.99;100.00
12219;BME280;6172;42.646;23.344;2022-10-16T00:55:01;95280.66;;;7.12;100.00
12219;BME280;6172;42.646;23.344;2022-10-16T00:57:29;95272.13;;;7.14;100.00
12219;BME280;6172;42.646;23.344;2022-10-16T00:59:56;95270.94;;;7.11;100.00
12219;BME280;6172;42.646;23.344;2022-10-16T01:02:24;95265.13;;;7.13;100.00
12219;BME280;6172;42.646;23.344;2022-10-16T01:04:53;95283.91;;;6.85;100.00
12219;BME280;6172;42.646;23.344;2022-10-16T01:07:30;95281.19;;;6.85;100.00
12219;BME280;6172;42.646;23.344;2022-10-16T01:10:06;95287.22;;;6.64;100.00
12219;BME280;6172;42.646;23.344;2022-10-16T01:12:40;95284.91;;;6.66;100.00
12219;BME280;6172;42.646;23.344;2022-10-16T01:15:13;95279.69;;;6.51;100.00
12219;BME280;6172;42.646;23.344;2022-10-16T01:17:45;95282.28;;;6.37;100.00
12219;BME280;6172;42.646;23.344;2022-10-16T01:20:22;95287.47;;;6.52;100.00
12219;BME280;6172;42.646;23.344;2022-10-16T01:23:09;95278.03;;;6.36;100.00
12219;BME280;6172;42.646;23.344;2022-10-16T01:25:57;95285.50;;;6.49;100.00
12219;BME280;6172;42.646;23.344;2022-10-16T01:28:34;95277.66;;;6.37;100.00
12219;BME280;6172;42.646;23.344;2022-10-16T01:31:03;95275.28;;;6.32;100.00
12219;BME280;6172;42.646;23.344;2022-10-16T01:33:35;95273.09;;;6.08;100.00
12219;BME280;6172;42.646;23.344;2022-10-16T01:36:09;95272.19;;;6.30;100.00
12219;BME280;6172;42.646;23.344;2022-10-16T01:38:38;95274.63;;;6.46;100.00
12219;BME280;6172;42.646;23.344;2022-10-16T01:41:09;95267.69;;;6.45;100.00
12219;BME280;6172;42.646;23.344;2022-10-16T01:43:41;95262.63;;;6.43;100.00
12219;BME280;6172;42.646;23.344;2022-10-16T01:46:10;95273.84;;;6.45;100.00
12219;BME280;6172;42.646;23.344;2022-10-16T01:48:38;95265.91;;;6.59;100.00
12219;BME280;6172;42.646;23.344;2022-10-16T01:51:08;95283.31;;;6.62;100.00
12219;BME280;6172;42.646;23.344;2022-10-16T01:53:36;95277.97;;;6.69;100.00
12219;BME280;6172;42.646;23.344;2022-10-16T01:56:06;95273.78;;;6.38;100.00
12219;BME280;6172;42.646;23.344;2022-10-16T01:58:38;95283.75;;;6.31;100.00
12219;BME280;6172;42.646;23.344;2022-10-16T02:01:08;95280.75;;;6.39;100.00
12219;BME280;6172;42.646;23.344;2022-10-16T02:03:40;95272.25;;;6.37;100.00
12219;BME280;6172;42.646;23.344;2022-10-16T02:06:08;95288.00;;;6.28;100.00
12219;BME280;6172;42.646;23.344;2022-10-16T02:08:36;95282.19;;;6.26;100.00
12219;BME280;6172;42.646;23.344;2022-10-16T02:11:06;95283.75;;;6.27;100.00
12219;BME280;6172;42.646;23.344;2022-10-16T02:13:36;95288.28;;;6.20;100.00
12219;BME280;6172;42.646;23.344;2022-10-16T02:16:10;95291.44;;;6.25;100.00
12219;BME280;6172;42.646;23.344;2022-10-16T02:18:37;95301.22;;;6.33;100.00
12219;BME280;6172;42.646;23.344;2022-10-16T02:21:13;95300.47;;;6.36;100.00
12219;BME280;6172;42.646;23.344;2022-10-16T02:23:45;95299.97;;;6.27;100.00
12219;BME280;6172;42.646;23.344;2022-10-16T02:26:20;95303.19;;;6.36;100.00
12219;BME280;6172;42.646;23.344;2022-10-16T02:28:55;95299.31;;;6.37;100.00
12219;BME280;6172;42.646;23.344;2022-10-16T02:31:28;95303.19;;;6.40;100.00
12219;BME280;6172;42.646;23.344;2022-10-16T02:33:58;95303.69;;;6.49;100.00
12219;BME280;6172;42.646;23.344;2022-10-16T02:36:27;95310.47;;;6.32;100.00
12219;BME280;6172;42.646;23.344;2022-10-16T02:38:54;95308.16;;;6.34;100.00
12219;BME280;6172;42.646;23.344;2022-10-16T02:41:22;95309.53;;;6.18;100.00
12219;BME280;6172;42.646;23.344;2022-10-16T02:43:49;95308.78;;;6.21;100.00
12219;BME280;6172;42.646;23.344;2022-10-16T02:46:17;95303.78;;;6.23;100.00
12219;BME280;6172;42.646;23.344;2022-10-16T02:48:46;95317.69;;;6.21;100.00
12219;BME280;6172;42.646;23.344;2022-10-16T02:51:13;95305.28;;;5.84;100.00
12219;BME280;6172;42.646;23.344;2022-10-16T02:53:39;95313.03;;;5.85;100.00
12219;BME280;6172;42.646;23.344;2022-10-16T02:56:07;95318.41;;;5.82;100.00
12219;BME280;6172;42.646;23.344;2022-10-16T02:58:33;95318.72;;;5.77;100.00
12219;BME280;6172;42.646;23.344;2022-10-16T03:01:00;95333.50;;;5.86;100.00
12219;BME280;6172;42.646;23.344;2022-10-16T03:03:27;95331.31;;;5.95;100.00
12219;BME280;6172;42.646;23.344;2022-10-16T03:05:55;95329.47;;;5.73;100.00
12219;BME280;6172;42.646;23.344;2022-10-16T03:08:22;95329.63;;;5.84;100.00
12219;BME280;6172;42.646;23.344;2022-10-16T03:10:50;95328.75;;;5.76;100.00
12219;BME280;6172;42.646;23.344;2022-10-16T03:13:17;95338.81;;;5.76;100.00
12219;BME280;6172;42.646;23.344;2022-10-16T03:15:45;95343.63;;;5.63;100.00
12219;BME280;6172;42.646;23.344;2022-10-16T03:18:12;95345.22;;;5.64;100.00
12219;BME280;6172;42.646;23.344;2022-10-16T03:20:39;95344.47;;;5.67;100.00
12219;BME280;6172;42.646;23.344;2022-10-16T03:23:07;95350.63;;;5.64;100.00
12219;BME280;6172;42.646;23.344;2022-10-16T03:25:34;95349.66;;;5.49;100.00
12219;BME280;6172;42.646;23.344;2022-10-16T03:28:01;95355.50;;;5.55;100.00
12219;BME280;6172;42.646;23.344;2022-10-16T03:30:28;95352.44;;;5.56;100.00
12219;BME280;6172;42.646;23.344;2022-10-16T03:32:55;95353.22;;;5.57;100.00
12219;BME280;6172;42.646;23.344;2022-10-16T03:35:23;95345.84;;;5.54;100.00
12219;BME280;6172;42.646;23.344;2022-10-16T03:37:50;95348.56;;;5.28;100.00
12219;BME280;6172;42.646;23.344;2022-10-16T03:40:19;95348.13;;;5.26;100.00
12219;BME280;6172;42.646;23.344;2022-10-16T03:42:46;95357.84;;;5.30;100.00
12219;BME280;6172;42.646;23.344;2022-10-16T03:45:12;95353.50;;;5.22;100.00
12219;BME280;6172;42.646;23.344;2022-10-16T03:47:39;95354.50;;;5.14;100.00
12219;BME280;6172;42.646;23.344;2022-10-16T03:50:07;95355.72;;;5.17;100.00
12219;BME280;6172;42.646;23.344;2022-10-16T03:52:34;95354.94;;;5.16;100.00
12219;BME280;6172;42.646;23.344;2022-10-16T03:55:01;95346.31;;;5.07;100.00
12219;BME280;6172;42.646;23.344;2022-10-16T03:57:29;95347.91;;;5.12;100.00
12219;BME280;6172;42.646;23.344;2022-10-16T03:59:56;95337.84;;;5.09;100.00
12219;BME280;6172;42.646;23.344;2022-10-16T04:02:23;95337.78;;;5.05;100.00
12219;BME280;6172;42.646;23.344;2022-10-16T04:04:49;95348.38;;;5.17;100.00
12219;BME280;6172;42.646;23.344;2022-10-16T04:07:16;95345.66;;;5.14;100.00
12219;BME280;6172;42.646;23.344;2022-10-16T04:09:43;95345.75;;;5.21;100.00
12219;BME280;6172;42.646;23.344;2022-10-16T04:12:10;95343.34;;;5.16;100.00
12219;BME280;6172;42.646;23.344;2022-10-16T04:14:38;95342.97;;;5.17;100.00
12219;BME280;6172;42.646;23.344;2022-10-16T04:17:05;95337.50;;;4.88;100.00
12219;BME280;6172;42.646;23.344;2022-10-16T04:19:32;95345.56;;;5.10;100.00
12219;BME280;6172;42.646;23.344;2022-10-16T04:21:59;95346.66;;;5.06;100.00
12219;BME280;6172;42.646;23.344;2022-10-16T04:24:25;95342.53;;;5.12;100.00
12219;BME280;6172;42.646;23.344;2022-10-16T04:26:52;95350.81;;;5.00;100.00
12219;BME280;6172;42.646;23.344;2022-10-16T04:29:19;95349.44;;;4.87;100.00
12219;BME280;6172;42.646;23.344;2022-10-16T04:31:47;95349.03;;;4.85;100.00
12219;BME280;6172;42.646;23.344;2022-10-16T04:34:14;95363.00;;;4.90;100.00
12219;BME280;6172;42.646;23.344;2022-10-16T04:36:41;95355.34;;;4.92;100.00
12219;BME280;6172;42.646;23.344;2022-10-16T04:39:08;95364.81;;;4.83;100.00
12219;BME280;6172;42.646;23.344;2022-10-16T04:41:35;95356.19;;;4.74;100.00
12219;BME280;6172;42.646;23.344;2022-10-16T04:44:02;95361.94;;;4.95;100.00
12219;BME280;6172;42.646;23.344;2022-10-16T04:46:28;95372.91;;;5.05;100.00
12219;BME280;6172;42.646;23.344;2022-10-16T04:48:57;95377.78;;;4.96;100.00
12219;BME280;6172;42.646;23.344;2022-10-16T04:51:24;95378.19;;;4.98;100.00
12219;BME280;6172;42.646;23.344;2022-10-16T04:53:51;95375.44;;;4.95;100.00
12219;BME280;6172;42.646;23.344;2022-10-16T04:56:18;95372.53;;;5.07;100.00
12219;BME280;6172;42.646;23.344;2022-10-16T04:58:44;95380.34;;;5.12;100.00
12219;BME280;6172;42.646;23.344;2022-10-16T05:01:11;95386.28;;;5.21;100.00
12219;BME280;6172;42.646;23.344;2022-10-16T05:03:38;95394.41;;;5.21;100.00
12219;BME280;6172;42.646;23.344;2022-10-16T05:06:07;95396.13;;;5.10;100.00
12219;BME280;6172;42.646;23.344;2022-10-16T05:08:33;95396.78;;;5.26;100.00
12219;BME280;6172;42.646;23.344;2022-10-16T05:11:00;95390.84;;;5.43;100.00
12219;BME280;6172;42.646;23.344;2022-10-16T05:13:27;95389.31;;;5.42;100.00
12219;BME280;6172;42.646;23.344;2022-10-16T05:15:54;95393.56;;;5.43;100.00
12219;BME280;6172;42.646;23.344;2022-10-16T05:18:22;95399.38;;;5.45;100.00
12219;BME280;6172;42.646;23.344;2022-10-16T05:20:49;95404.59;;;5.31;100.00
12219;BME280;6172;42.646;23.344;2022-10-16T05:23:17;95408.94;;;5.39;100.00
12219;BME280;6172;42.646;23.344;2022-10-16T05:25:52;95406.31;;;5.42;100.00
12219;BME280;6172;42.646;23.344;2022-10-16T05:28:19;95405.34;;;5.31;100.00
12219;BME280;6172;42.646;23.344;2022-10-16T05:30:46;95406.69;;;5.41;100.00
12219;BME280;6172;42.646;23.344;2022-10-16T05:33:13;95404.25;;;5.36;100.00
12219;BME280;6172;42.646;23.344;2022-10-16T05:35:40;95405.19;;;5.21;100.00
12219;BME280;6172;42.646;23.344;2022-10-16T05:38:07;95399.06;;;5.24;100.00
12219;BME280;6172;42.646;23.344;2022-10-16T05:40:35;95400.00;;;5.35;100.00
12219;BME280;6172;42.646;23.344;2022-10-16T05:43:02;95393.34;;;5.29;100.00
12219;BME280;6172;42.646;23.344;2022-10-16T05:45:29;95412.34;;;5.32;100.00
12219;BME280;6172;42.646;23.344;2022-10-16T05:47:56;95401.00;;;5.49;100.00
12219;BME280;6172;42.646;23.344;2022-10-16T05:50:22;95403.28;;;5.47;100.00
12219;BME280;6172;42.646;23.344;2022-10-16T05:52:49;95412.00;;;5.60;100.00
12219;BME280;6172;42.646;23.344;2022-10-16T05:55:16;95402.34;;;5.89;100.00
12219;BME280;6172;42.646;23.344;2022-10-16T05:57:44;95418.22;;;6.86;100.00
12219;BME280;6172;42.646;23.344;2022-10-16T06:00:12;95406.66;;;8.62;100.00
12219;BME280;6172;42.646;23.344;2022-10-16T06:02:39;95395.38;;;10.35;100.00
12219;BME280;6172;42.646;23.344;2022-10-16T06:05:06;95397.34;;;11.65;100.00
12219;BME280;6172;42.646;23.344;2022-10-16T06:07:34;95389.44;;;12.85;100.00
12219;BME280;6172;42.646;23.344;2022-10-16T06:10:01;95393.00;;;12.48;100.00
12219;BME280;6172;42.646;23.344;2022-10-16T06:12:28;95390.47;;;12.95;99.67
12219;BME280;6172;42.646;23.344;2022-10-16T06:14:56;95393.81;;;14.28;81.47
12219;BME280;6172;42.646;23.344;2022-10-16T06:17:23;95394.63;;;14.87;73.81
12219;BME280;6172;42.646;23.344;2022-10-16T06:19:50;95397.31;;;15.42;70.57
12219;BME280;6172;42.646;23.344;2022-10-16T06:22:17;95401.72;;;16.04;66.18
12219;BME280;6172;42.646;23.344;2022-10-16T06:24:43;95406.72;;;16.09;62.69
12219;BME280;6172;42.646;23.344;2022-10-16T06:27:11;95406.53;;;16.16;62.79
12219;BME280;6172;42.646;23.344;2022-10-16T06:29:38;95409.00;;;15.62;66.01
12219;BME280;6172;42.646;23.344;2022-10-16T06:32:06;95406.00;;;15.05;70.90
12219;BME280;6172;42.646;23.344;2022-10-16T06:34:33;95410.09;;;16.00;66.11
12219;BME280;6172;42.646;23.344;2022-10-16T06:37:00;95409.53;;;13.55;79.44
12219;BME280;6172;42.646;23.344;2022-10-16T06:39:26;95420.84;;;12.73;90.43
12219;BME280;6172;42.646;23.344;2022-10-16T06:41:53;95430.25;;;12.35;98.68
12219;BME280;6172;42.646;23.344;2022-10-16T06:44:20;95421.69;;;13.27;94.92
12219;BME280;6172;42.646;23.344;2022-10-16T06:46:47;95418.22;;;14.22;83.21
12219;BME280;6172;42.646;23.344;2022-10-16T06:49:15;95425.34;;;13.44;86.28
12219;BME280;6172;42.646;23.344;2022-10-16T06:51:47;95431.00;;;12.36;94.06
12219;BME280;6172;42.646;23.344;2022-10-16T06:54:15;95437.53;;;12.08;100.00
12219;BME280;6172;42.646;23.344;2022-10-16T06:56:43;95444.03;;;12.21;100.00
12219;BME280;6172;42.646;23.344;2022-10-16T06:59:10;95434.75;;;12.15;99.56
12219;BME280;6172;42.646;23.344;2022-10-16T07:01:37;95450.84;;;12.03;98.60
12219;BME280;6172;42.646;23.344;2022-10-16T07:04:03;95445.47;;;13.04;97.67
12219;BME280;6172;42.646;23.344;2022-10-16T07:06:33;95436.09;;;14.07;83.25
12219;BME280;6172;42.646;23.344;2022-10-16T07:09:03;95440.81;;;14.49;79.42
12219;BME280;6172;42.646;23.344;2022-10-16T07:11:30;95436.88;;;14.31;78.36
12219;BME280;6172;42.646;23.344;2022-10-16T07:13:57;95441.13;;;14.12;76.68
12219;BME280;6172;42.646;23.344;2022-10-16T07:16:25;95436.97;;;14.86;73.74
12219;BME280;6172;42.646;23.344;2022-10-16T07:18:53;95444.31;;;14.92;71.79
12219;BME280;6172;42.646;23.344;2022-10-16T07:21:24;95446.03;;;14.63;73.79
12219;BME280;6172;42.646;23.344;2022-10-16T07:23:54;95448.25;;;15.11;73.03
12219;BME280;6172;42.646;23.344;2022-10-16T07:26:21;95452.41;;;14.99;73.24
12219;BME280;6172;42.646;23.344;2022-10-16T07:28:49;95451.34;;;14.74;71.91
12219;BME280;6172;42.646;23.344;2022-10-16T07:31:17;95454.28;;;14.21;77.91
12219;BME280;6172;42.646;23.344;2022-10-16T07:33:45;95452.69;;;13.74;78.24
12219;BME280;6172;42.646;23.344;2022-10-16T07:36:14;95452.38;;;14.18;83.48
12219;BME280;6172;42.646;23.344;2022-10-16T07:38:41;95452.38;;;13.95;85.36
12219;BME280;6172;42.646;23.344;2022-10-16T07:41:12;95456.47;;;13.83;84.26
12219;BME280;6172;42.646;23.344;2022-10-16T07:43:39;95445.84;;;14.08;82.98
12219;BME280;6172;42.646;23.344;2022-10-16T07:46:06;95448.69;;;14.05;84.43
12219;BME280;6172;42.646;23.344;2022-10-16T07:48:34;95454.91;;;14.71;79.84
12219;BME280;6172;42.646;23.344;2022-10-16T07:51:05;95458.13;;;15.25;77.10
12219;BME280;6172;42.646;23.344;2022-10-16T07:53:32;95456.88;;;15.29;73.30
12219;BME280;6172;42.646;23.344;2022-10-16T07:56:00;95452.97;;;14.91;76.52
12219;BME280;6172;42.646;23.344;2022-10-16T07:58:32;95452.75;;;14.82;76.85
12219;BME280;6172;42.646;23.344;2022-10-16T08:01:03;95465.25;;;15.58;71.37
12219;BME280;6172;42.646;23.344;2022-10-16T08:03:30;95454.75;;;15.37;69.89
12219;BME280;6172;42.646;23.344;2022-10-16T08:06:01;95466.53;;;14.36;79.56
12219;BME280;6172;42.646;23.344;2022-10-16T08:08:29;95456.00;;;14.96;74.83
12219;BME280;6172;42.646;23.344;2022-10-16T08:10:59;95462.94;;;15.56;70.00
12219;BME280;6172;42.646;23.344;2022-10-16T08:13:30;95456.22;;;15.41;72.57
12219;BME280;6172;42.646;23.344;2022-10-16T08:15:58;95458.25;;;14.82;72.35
12219;BME280;6172;42.646;23.344;2022-10-16T08:18:28;95458.53;;;15.07;70.90
12219;BME280;6172;42.646;23.344;2022-10-16T08:20:55;95457.81;;;15.03;72.38
12219;BME280;6172;42.646;23.344;2022-10-16T08:23:26;95459.63;;;14.70;73.66
12219;BME280;6172;42.646;23.344;2022-10-16T08:25:53;95456.34;;;14.36;75.95
12219;BME280;6172;42.646;23.344;2022-10-16T08:28:20;95451.75;;;14.92;75.91
12219;BME280;6172;42.646;23.344;2022-10-16T08:30:49;95454.88;;;14.51;75.29
12219;BME280;6172;42.646;23.344;2022-10-16T08:33:16;95450.25;;;14.68;74.89
12219;BME280;6172;42.646;23.344;2022-10-16T08:35:42;95454.16;;;14.90;71.87
12219;BME280;6172;42.646;23.344;2022-10-16T08:38:09;95448.44;;;14.38;73.92
12219;BME280;6172;42.646;23.344;2022-10-16T08:40:37;95455.28;;;14.30;72.30
12219;BME280;6172;42.646;23.344;2022-10-16T08:43:31;95450.28;;;15.78;65.94
12219;BME280;6172;42.646;23.344;2022-10-16T08:48:55;95452.69;;;15.92;61.50
12219;BME280;6172;42.646;23.344;2022-10-16T08:51:24;95457.31;;;16.27;56.09
12219;BME280;6172;42.646;23.344;2022-10-16T08:53:55;95459.28;;;17.28;52.30
12219;BME280;6172;42.646;23.344;2022-10-16T08:56:23;95453.38;;;17.68;50.76
12219;BME280;6172;42.646;23.344;2022-10-16T08:58:51;95456.13;;;17.55;50.27
12219;BME280;6172;42.646;23.344;2022-10-16T09:01:21;95462.63;;;16.95;51.14
12219;BME280;6172;42.646;23.344;2022-10-16T09:04:22;95462.84;;;16.11;52.37
12219;BME280;6172;42.646;23.344;2022-10-16T09:06:54;95459.25;;;17.16;50.63
12219;BME280;6172;42.646;23.344;2022-10-16T09:09:40;95445.78;;;17.84;47.40
12219;BME280;6172;42.646;23.344;2022-10-16T09:12:15;95459.63;;;17.30;47.91
12219;BME280;6172;42.646;23.344;2022-10-16T09:14:55;95452.19;;;17.94;47.20
12219;BME280;6172;42.646;23.344;2022-10-16T09:17:39;95445.56;;;17.66;48.03
12219;BME280;6172;42.646;23.344;2022-10-16T09:20:25;95452.19;;;15.81;50.79
12219;BME280;6172;42.646;23.344;2022-10-16T09:23:10;95456.81;;;16.77;48.82
12219;BME280;6172;42.646;23.344;2022-10-16T09:25:39;95451.16;;;16.23;49.26
12219;BME280;6172;42.646;23.344;2022-10-16T09:28:09;95450.81;;;15.73;49.01
12219;BME280;6172;42.646;23.344;2022-10-16T09:30:37;95456.66;;;16.23;50.26
12219;BME280;6172;42.646;23.344;2022-10-16T09:33:06;95456.84;;;16.00;49.69
12219;BME280;6172;42.646;23.344;2022-10-16T09:35:38;95452.94;;;16.30;49.38
12219;BME280;6172;42.646;23.344;2022-10-16T09:38:07;95457.09;;;16.06;49.14
12219;BME280;6172;42.646;23.344;2022-10-16T09:40:36;95458.31;;;15.53;50.47
12219;BME280;6172;42.646;23.344;2022-10-16T09:43:17;95447.84;;;16.28;48.61
12219;BME280;6172;42.646;23.344;2022-10-16T09:45:54;95451.03;;;17.41;46.26
12219;BME280;6172;42.646;23.344;2022-10-16T09:48:25;95436.63;;;17.75;44.59
12219;BME280;6172;42.646;23.344;2022-10-16T09:50:57;95441.38;;;17.87;43.65
12219;BME280;6172;42.646;23.344;2022-10-16T09:53:26;95437.75;;;17.77;43.29
12219;BME280;6172;42.646;23.344;2022-10-16T09:56:04;95430.94;;;18.28;43.21
12219;BME280;6172;42.646;23.344;2022-10-16T09:58:32;95437.00;;;18.70;43.43
12219;BME280;6172;42.646;23.344;2022-10-16T10:01:00;95430.28;;;18.71;43.15
12219;BME280;6172;42.646;23.344;2022-10-16T10:03:40;95429.00;;;19.06;41.01
12219;BME280;6172;42.646;23.344;2022-10-16T10:06:17;95440.63;;;17.07;43.86
12219;BME280;6172;42.646;23.344;2022-10-16T10:08:55;95433.78;;;17.12;44.02
12219;BME280;6172;42.646;23.344;2022-10-16T10:11:46;95434.72;;;17.47;43.09
12219;BME280;6172;42.646;23.344;2022-10-16T10:14:37;95416.63;;;18.08;41.15
12219;BME280;6172;42.646;23.344;2022-10-16T10:17:14;95425.41;;;18.75;40.09
12219;BME280;6172;42.646;23.344;2022-10-16T10:19:46;95422.16;;;17.46;42.08
12219;BME280;6172;42.646;23.344;2022-10-16T10:22:20;95418.41;;;18.15;41.29
12219;BME280;6172;42.646;23.344;2022-10-16T10:24:55;95419.31;;;18.46;40.11
12219;BME280;6172;42.646;23.344;2022-10-16T10:27:29;95418.41;;;18.83;39.20
12219;BME280;6172;42.646;23.344;2022-10-16T10:30:01;95409.72;;;18.72;39.48
12219;BME280;6172;42.646;23.344;2022-10-16T10:32:39;95406.50;;;19.38;38.92
12219;BME280;6172;42.646;23.344;2022-10-16T10:35:18;95416.44;;;17.78;40.77
12219;BME280;6172;42.646;23.344;2022-10-16T10:38:00;95408.31;;;18.21;40.75
12219;BME280;6172;42.646;23.344;2022-10-16T10:40:38;95406.72;;;19.00;39.75
12219;BME280;6172;42.646;23.344;2022-10-16T10:43:14;95402.66;;;19.14;38.93
12219;BME280;6172;42.646;23.344;2022-10-16T10:45:47;95405.66;;;17.71;40.96
12219;BME280;6172;42.646;23.344;2022-10-16T10:48:28;95407.25;;;17.05;42.03
12219;BME280;6172;42.646;23.344;2022-10-16T10:51:01;95394.44;;;17.11;41.19
12219;BME280;6172;42.646;23.344;2022-10-16T10:53:41;95403.91;;;16.85;42.93
12219;BME280;6172;42.646;23.344;2022-10-16T10:56:19;95392.97;;;17.73;41.39
12219;BME280;6172;42.646;23.344;2022-10-16T10:59:08;95401.66;;;16.80;43.20
12219;BME280;6172;42.646;23.344;2022-10-16T11:01:50;95389.00;;;18.33;39.94
12219;BME280;6172;42.646;23.344;2022-10-16T11:04:33;95376.41;;;19.18;38.19
12219;BME280;6172;42.646;23.344;2022-10-16T11:07:05;95374.69;;;19.73;34.54
12219;BME280;6172;42.646;23.344;2022-10-16T11:09:36;95377.56;;;18.99;34.40
12219;BME280;6172;42.646;23.344;2022-10-16T11:12:09;95377.34;;;18.94;34.83
12219;BME280;6172;42.646;23.344;2022-10-16T11:14:43;95372.84;;;19.09;35.29
12219;BME280;6172;42.646;23.344;2022-10-16T11:17:15;95374.91;;;18.19;36.47
12219;BME280;6172;42.646;23.344;2022-10-16T11:19:47;95369.13;;;18.81;35.44
12219;BME280;6172;42.646;23.344;2022-10-16T11:22:19;95365.50;;;18.29;36.37
12219;BME280;6172;42.646;23.344;2022-10-16T11:24:53;95369.41;;;18.40;34.95
12219;BME280;6172;42.646;23.344;2022-10-16T11:27:26;95356.06;;;18.39;33.96
12219;BME280;6172;42.646;23.344;2022-10-16T11:29:59;95357.66;;;17.30;35.05
12219;BME280;6172;42.646;23.344;2022-10-16T11:32:33;95360.91;;;18.01;34.84
12219;BME280;6172;42.646;23.344;2022-10-16T11:35:07;95371.38;;;17.72;36.33
12219;BME280;6172;42.646;23.344;2022-10-16T11:37:41;95367.91;;;17.05;37.26
12219;BME280;6172;42.646;23.344;2022-10-16T11:40:19;95362.66;;;17.36;37.15
12219;BME280;6172;42.646;23.344;2022-10-16T11:42:54;95371.09;;;17.16;36.49
12219;BME280;6172;42.646;23.344;2022-10-16T11:45:29;95362.88;;;17.28;35.38
12219;BME280;6172;42.646;23.344;2022-10-16T11:48:02;95366.38;;;17.16;35.12
12219;BME280;6172;42.646;23.344;2022-10-16T11:50:34;95369.09;;;16.91;36.69
12219;BME280;6172;42.646;23.344;2022-10-16T11:53:13;95365.38;;;17.48;37.15
12219;BME280;6172;42.646;23.344;2022-10-16T11:55:44;95367.38;;;17.48;37.57
12219;BME280;6172;42.646;23.344;2022-10-16T11:58:18;95366.25;;;17.07;38.40
12219;BME280;6172;42.646;23.344;2022-10-16T12:00:51;95364.53;;;17.39;38.66
12219;BME280;6172;42.646;23.344;2022-10-16T12:03:25;95365.66;;;16.87;38.74
12219;BME280;6172;42.646;23.344;2022-10-16T12:06:10;95368.00;;;17.01;39.53
12219;BME280;6172;42.646;23.344;2022-10-16T12:08:43;95361.66;;;17.29;39.44
12219;BME280;6172;42.646;23.344;2022-10-16T12:11:33;95362.53;;;17.39;38.75
12219;BME280;6172;42.646;23.344;2022-10-16T12:14:18;95356.03;;;17.83;36.46
12219;BME280;6172;42.646;23.344;2022-10-16T12:16:53;95359.44;;;17.50;36.31
12219;BME280;6172;42.646;23.344;2022-10-16T12:19:22;95355.03;;;17.52;35.90
12219;BME280;6172;42.646;23.344;2022-10-16T12:21:51;95362.00;;;18.16;37.32
12219;BME280;6172;42.646;23.344;2022-10-16T12:24:30;95365.03;;;17.84;35.95
12219;BME280;6172;42.646;23.344;2022-10-16T12:26:57;95359.53;;;17.84;36.15
12219;BME280;6172;42.646;23.344;2022-10-16T12:29:32;95364.50;;;17.89;36.19
12219;BME280;6172;42.646;23.344;2022-10-16T12:32:00;95359.38;;;18.00;37.25
12219;BME280;6172;42.646;23.344;2022-10-16T12:34:34;95357.34;;;17.28;38.13
12219;BME280;6172;42.646;23.344;2022-10-16T12:37:13;95360.75;;;17.83;38.26
12219;BME280;6172;42.646;23.344;2022-10-16T12:39:42;95358.91;;;18.14;38.74
12219;BME280;6172;42.646;23.344;2022-10-16T12:42:23;95357.84;;;18.33;36.89
12219;BME280;6172;42.646;23.344;2022-10-16T12:44:50;95364.31;;;18.17;37.23
12219;BME280;6172;42.646;23.344;2022-10-16T12:47:23;95359.56;;;18.52;36.27
12219;BME280;6172;42.646;23.344;2022-10-16T12:49:52;95365.69;;;18.34;36.20
12219;BME280;6172;42.646;23.344;2022-10-16T12:52:28;95364.22;;;17.62;37.35
12219;BME280;6172;42.646;23.344;2022-10-16T12:55:03;95363.63;;;17.42;38.53
12219;BME280;6172;42.646;23.344;2022-10-16T12:57:40;95377.84;;;17.40;39.13
12219;BME280;6172;42.646;23.344;2022-10-16T13:00:25;95372.22;;;17.44;38.80
12219;BME280;6172;42.646;23.344;2022-10-16T13:03:21;95374.97;;;17.44;39.04
12219;BME280;6172;42.646;23.344;2022-10-16T13:06:04;95374.47;;;17.61;38.15
12219;BME280;6172;42.646;23.344;2022-10-16T13:08:45;95380.28;;;17.38;38.09
12219;BME280;6172;42.646;23.344;2022-10-16T13:11:23;95372.19;;;17.94;38.55
12219;BME280;6172;42.646;23.344;2022-10-16T13:14:25;95379.94;;;17.74;39.71
12219;BME280;6172;42.646;23.344;2022-10-16T13:17:04;95377.47;;;18.01;39.02
12219;BME280;6172;42.646;23.344;2022-10-16T13:19:41;95370.47;;;18.21;38.28
12219;BME280;6172;42.646;23.344;2022-10-16T13:22:16;95366.88;;;18.12;38.41